sensor_id;sensor_type;location;lat;lon;timestamp;P1;durP1;ratioP1;P2;durP2;ratioP2
64832;SDS011;51290;45.060;38.948;2024-01-30T00:02:11;6.88;;;4.22;;
64832;SDS011;51290;45.060;38.948;2024-01-30T00:04:37;4.18;;;3.20;;
64832;SDS011;51290;45.060;38.948;2024-01-30T00:07:03;5.20;;;3.25;;
64832;SDS011;51290;45.060;38.948;2024-01-30T00:09:29;6.18;;;3.55;;
64832;SDS011;51290;45.060;38.948;2024-01-30T00:11:55;10.05;;;5.72;;
64832;SDS011;51290;45.060;38.948;2024-01-30T00:14:21;8.02;;;5.22;;
64832;SDS011;51290;45.060;38.948;2024-01-30T00:16:48;4.75;;;3.10;;
64832;SDS011;51290;45.060;38.948;2024-01-30T00:19:15;10.57;;;5.43;;
64832;SDS011;51290;45.060;38.948;2024-01-30T00:21:41;5.75;;;4.32;;
64832;SDS011;51290;45.060;38.948;2024-01-30T00:24:07;8.45;;;5.88;;
64832;SDS011;51290;45.060;38.948;2024-01-30T00:26:33;8.10;;;5.80;;
64832;SDS011;51290;45.060;38.948;2024-01-30T00:28:59;9.40;;;5.40;;
64832;SDS011;51290;45.060;38.948;2024-01-30T00:31:25;6.38;;;4.60;;
64832;SDS011;51290;45.060;38.948;2024-01-30T00:33:51;8.43;;;5.60;;
64832;SDS011;51290;45.060;38.948;2024-01-30T00:36:17;5.55;;;3.95;;
64832;SDS011;51290;45.060;38.948;2024-01-30T00:38:43;6.43;;;4.95;;
64832;SDS011;51290;45.060;38.948;2024-01-30T00:41:09;7.35;;;5.10;;
64832;SDS011;51290;45.060;38.948;2024-01-30T00:43:36;5.68;;;3.72;;
64832;SDS011;51290;45.060;38.948;2024-01-30T00:46:02;7.35;;;5.07;;
64832;SDS011;51290;45.060;38.948;2024-01-30T00:48:29;8.65;;;5.70;;
64832;SDS011;51290;45.060;38.948;2024-01-30T00:50:55;7.65;;;5.10;;
64832;SDS011;51290;45.060;38.948;2024-01-30T00:53:20;9.48;;;6.03;;
64832;SDS011;51290;45.060;38.948;2024-01-30T00:55:46;10.80;;;3.78;;
64832;SDS011;51290;45.060;38.948;2024-01-30T00:58:12;5.28;;;3.97;;
64832;SDS011;51290;45.060;38.948;2024-01-30T01:00:38;8.30;;;5.70;;
64832;SDS011;51290;45.060;38.948;2024-01-30T01:03:04;8.73;;;5.85;;
64832;SDS011;51290;45.060;38.948;2024-01-30T01:05:31;7.68;;;4.65;;
64832;SDS011;51290;45.060;38.948;2024-01-30T01:07:56;4.30;;;3.30;;
64832;SDS011;51290;45.060;38.948;2024-01-30T01:10:22;4.93;;;3.65;;
64832;SDS011;51290;45.060;38.948;2024-01-30T01:12:48;7.75;;;5.40;;
64832;SDS011;51290;45.060;38.948;2024-01-30T01:15:15;7.97;;;5.95;;
64832;SDS011;51290;45.060;38.948;2024-01-30T01:17:41;3.90;;;2.45;;
64832;SDS011;51290;45.060;38.948;2024-01-30T01:20:07;6.95;;;3.83;;
64832;SDS011;51290;45.060;38.948;2024-01-30T01:22:35;7.85;;;5.05;;
64832;SDS011;51290;45.060;38.948;2024-01-30T01:25:04;8.70;;;5.78;;
64832;SDS011;51290;45.060;38.948;2024-01-30T01:27:33;7.95;;;5.20;;
64832;SDS011;51290;45.060;38.948;2024-01-30T01:30:04;6.95;;;4.88;;
64832;SDS011;51290;45.060;38.948;2024-01-30T01:32:31;8.10;;;4.97;;
64832;SDS011;51290;45.060;38.948;2024-01-30T01:34:57;5.70;;;4.07;;
64832;SDS011;51290;45.060;38.948;2024-01-30T01:37:23;7.18;;;4.63;;
64832;SDS011;51290;45.060;38.948;2024-01-30T01:39:52;6.60;;;3.95;;
64832;SDS011;51290;45.060;38.948;2024-01-30T01:42:18;10.52;;;8.00;;
64832;SDS011;51290;45.060;38.948;2024-01-30T01:44:44;12.82;;;6.43;;
64832;SDS011;51290;45.060;38.948;2024-01-30T01:47:10;4.50;;;2.75;;
64832;SDS011;51290;45.060;38.948;2024-01-30T01:49:36;7.60;;;4.82;;
64832;SDS011;51290;45.060;38.948;2024-01-30T01:52:03;7.50;;;4.85;;
64832;SDS011;51290;45.060;38.948;2024-01-30T01:54:30;7.57;;;3.97;;
64832;SDS011;51290;45.060;38.948;2024-01-30T01:56:56;8.00;;;5.15;;
64832;SDS011;51290;45.060;38.948;2024-01-30T01:59:22;6.90;;;4.60;;
64832;SDS011;51290;45.060;38.948;2024-01-30T02:01:50;7.53;;;5.05;;
64832;SDS011;51290;45.060;38.948;2024-01-30T02:04:17;7.75;;;5.20;;
64832;SDS011;51290;45.060;38.948;2024-01-30T02:06:43;5.47;;;4.38;;
64832;SDS011;51290;45.060;38.948;2024-01-30T02:09:09;4.90;;;3.97;;
64832;SDS011;51290;45.060;38.948;2024-01-30T02:11:35;9.07;;;5.70;;
64832;SDS011;51290;45.060;38.948;2024-01-30T02:14:04;8.50;;;5.82;;
64832;SDS011;51290;45.060;38.948;2024-01-30T02:16:31;8.13;;;5.82;;
64832;SDS011;51290;45.060;38.948;2024-01-30T02:18:57;8.90;;;6.25;;
64832;SDS011;51290;45.060;38.948;2024-01-30T02:21:23;11.68;;;6.32;;
64832;SDS011;51290;45.060;38.948;2024-01-30T02:23:49;6.72;;;4.88;;
64832;SDS011;51290;45.060;38.948;2024-01-30T02:26:18;10.07;;;6.53;;
64832;SDS011;51290;45.060;38.948;2024-01-30T02:28:43;7.40;;;5.35;;
64832;SDS011;51290;45.060;38.948;2024-01-30T02:31:10;6.43;;;4.20;;
64832;SDS011;51290;45.060;38.948;2024-01-30T02:33:36;9.38;;;6.68;;
64832;SDS011;51290;45.060;38.948;2024-01-30T02:36:02;7.85;;;5.53;;
64832;SDS011;51290;45.060;38.948;2024-01-30T02:38:28;9.93;;;5.85;;
64832;SDS011;51290;45.060;38.948;2024-01-30T02:40:54;9.10;;;5.70;;
64832;SDS011;51290;45.060;38.948;2024-01-30T02:43:21;7.78;;;5.80;;
64832;SDS011;51290;45.060;38.948;2024-01-30T02:45:47;9.25;;;6.18;;
64832;SDS011;51290;45.060;38.948;2024-01-30T02:48:13;11.15;;;7.03;;
64832;SDS011;51290;45.060;38.948;2024-01-30T02:50:39;10.70;;;7.38;;
64832;SDS011;51290;45.060;38.948;2024-01-30T02:53:05;6.50;;;4.63;;
64832;SDS011;51290;45.060;38.948;2024-01-30T02:55:30;11.18;;;7.22;;
64832;SDS011;51290;45.060;38.948;2024-01-30T02:57:56;8.93;;;6.57;;
64832;SDS011;51290;45.060;38.948;2024-01-30T03:00:23;8.88;;;6.18;;
64832;SDS011;51290;45.060;38.948;2024-01-30T03:02:49;4.65;;;3.50;;
64832;SDS011;51290;45.060;38.948;2024-01-30T03:05:15;12.02;;;5.60;;
64832;SDS011;51290;45.060;38.948;2024-01-30T03:07:41;7.93;;;5.68;;
64832;SDS011;51290;45.060;38.948;2024-01-30T03:10:07;11.68;;;7.10;;
64832;SDS011;51290;45.060;38.948;2024-01-30T03:12:33;10.50;;;7.20;;
64832;SDS011;51290;45.060;38.948;2024-01-30T03:14:59;9.85;;;6.53;;
64832;SDS011;51290;45.060;38.948;2024-01-30T03:17:25;7.95;;;5.70;;
64832;SDS011;51290;45.060;38.948;2024-01-30T03:19:51;8.15;;;5.57;;
64832;SDS011;51290;45.060;38.948;2024-01-30T03:22:17;7.97;;;5.50;;
64832;SDS011;51290;45.060;38.948;2024-01-30T03:24:43;11.38;;;5.75;;
64832;SDS011;51290;45.060;38.948;2024-01-30T03:27:09;9.20;;;5.70;;
64832;SDS011;51290;45.060;38.948;2024-01-30T03:29:35;12.68;;;7.15;;
64832;SDS011;51290;45.060;38.948;2024-01-30T03:32:01;11.88;;;6.95;;
64832;SDS011;51290;45.060;38.948;2024-01-30T03:34:29;10.77;;;6.78;;
64832;SDS011;51290;45.060;38.948;2024-01-30T03:36:55;9.60;;;6.35;;
64832;SDS011;51290;45.060;38.948;2024-01-30T03:39:21;7.00;;;5.25;;
64832;SDS011;51290;45.060;38.948;2024-01-30T03:41:47;8.40;;;5.38;;
64832;SDS011;51290;45.060;38.948;2024-01-30T03:44:13;9.35;;;6.30;;
64832;SDS011;51290;45.060;38.948;2024-01-30T03:46:39;6.90;;;4.35;;
64832;SDS011;51290;45.060;38.948;2024-01-30T03:49:05;8.95;;;6.40;;
64832;SDS011;51290;45.060;38.948;2024-01-30T03:51:30;8.48;;;5.97;;
64832;SDS011;51290;45.060;38.948;2024-01-30T03:53:56;9.18;;;4.80;;
64832;SDS011;51290;45.060;38.948;2024-01-30T03:56:22;7.78;;;5.32;;
64832;SDS011;51290;45.060;38.948;2024-01-30T03:58:50;8.25;;;6.30;;
64832;SDS011;51290;45.060;38.948;2024-01-30T04:01:16;10.88;;;7.18;;
64832;SDS011;51290;45.060;38.948;2024-01-30T04:03:42;11.25;;;6.38;;
64832;SDS011;51290;45.060;38.948;2024-01-30T04:06:09;6.57;;;3.88;;
64832;SDS011;51290;45.060;38.948;2024-01-30T04:08:36;6.55;;;5.30;;
64832;SDS011;51290;45.060;38.948;2024-01-30T04:11:05;10.35;;;3.85;;
64832;SDS011;51290;45.060;38.948;2024-01-30T04:13:32;8.88;;;6.05;;
64832;SDS011;51290;45.060;38.948;2024-01-30T04:16:01;6.57;;;4.70;;
64832;SDS011;51290;45.060;38.948;2024-01-30T04:18:28;10.95;;;6.75;;
64832;SDS011;51290;45.060;38.948;2024-01-30T04:20:54;10.23;;;7.38;;
64832;SDS011;51290;45.060;38.948;2024-01-30T04:23:21;9.65;;;6.00;;
64832;SDS011;51290;45.060;38.948;2024-01-30T04:25:47;7.95;;;5.13;;
64832;SDS011;51290;45.060;38.948;2024-01-30T04:28:13;8.45;;;5.55;;
64832;SDS011;51290;45.060;38.948;2024-01-30T04:30:39;10.90;;;6.55;;
64832;SDS011;51290;45.060;38.948;2024-01-30T04:33:05;16.58;;;7.03;;
64832;SDS011;51290;45.060;38.948;2024-01-30T04:35:31;8.90;;;4.95;;
64832;SDS011;51290;45.060;38.948;2024-01-30T04:37:57;7.60;;;5.45;;
64832;SDS011;51290;45.060;38.948;2024-01-30T04:40:23;9.02;;;5.55;;
64832;SDS011;51290;45.060;38.948;2024-01-30T04:42:49;11.00;;;6.20;;
64832;SDS011;51290;45.060;38.948;2024-01-30T04:45:15;6.93;;;5.10;;
64832;SDS011;51290;45.060;38.948;2024-01-30T04:47:41;8.23;;;5.70;;
64832;SDS011;51290;45.060;38.948;2024-01-30T04:50:07;10.57;;;6.38;;
64832;SDS011;51290;45.060;38.948;2024-01-30T04:52:34;10.20;;;6.50;;
64832;SDS011;51290;45.060;38.948;2024-01-30T04:55:00;7.53;;;5.28;;
64832;SDS011;51290;45.060;38.948;2024-01-30T04:57:26;11.13;;;7.63;;
64832;SDS011;51290;45.060;38.948;2024-01-30T04:59:52;11.55;;;7.85;;
64832;SDS011;51290;45.060;38.948;2024-01-30T05:02:18;13.18;;;6.97;;
64832;SDS011;51290;45.060;38.948;2024-01-30T05:04:44;8.05;;;4.95;;
64832;SDS011;51290;45.060;38.948;2024-01-30T05:07:10;13.85;;;7.30;;
64832;SDS011;51290;45.060;38.948;2024-01-30T05:09:36;16.65;;;8.65;;
64832;SDS011;51290;45.060;38.948;2024-01-30T05:12:02;14.32;;;10.40;;
64832;SDS011;51290;45.060;38.948;2024-01-30T05:14:28;11.45;;;7.75;;
64832;SDS011;51290;45.060;38.948;2024-01-30T05:16:54;14.75;;;7.53;;
64832;SDS011;51290;45.060;38.948;2024-01-30T05:19:20;14.32;;;10.35;;
64832;SDS011;51290;45.060;38.948;2024-01-30T05:21:48;13.23;;;8.48;;
64832;SDS011;51290;45.060;38.948;2024-01-30T05:24:15;12.02;;;7.82;;
64832;SDS011;51290;45.060;38.948;2024-01-30T05:26:41;11.23;;;8.07;;
64832;SDS011;51290;45.060;38.948;2024-01-30T05:29:07;11.70;;;7.47;;
64832;SDS011;51290;45.060;38.948;2024-01-30T05:31:33;12.02;;;8.80;;
64832;SDS011;51290;45.060;38.948;2024-01-30T05:34:00;9.15;;;5.55;;
64832;SDS011;51290;45.060;38.948;2024-01-30T05:36:26;11.43;;;6.25;;
64832;SDS011;51290;45.060;38.948;2024-01-30T05:38:52;14.27;;;8.07;;
64832;SDS011;51290;45.060;38.948;2024-01-30T05:41:18;9.57;;;6.75;;
64832;SDS011;51290;45.060;38.948;2024-01-30T05:43:46;13.20;;;8.20;;
64832;SDS011;51290;45.060;38.948;2024-01-30T05:46:12;8.45;;;5.80;;
64832;SDS011;51290;45.060;38.948;2024-01-30T05:48:38;9.95;;;6.90;;
64832;SDS011;51290;45.060;38.948;2024-01-30T05:51:04;11.98;;;7.90;;
64832;SDS011;51290;45.060;38.948;2024-01-30T05:53:32;11.77;;;7.22;;
64832;SDS011;51290;45.060;38.948;2024-01-30T05:56:00;15.75;;;10.00;;
64832;SDS011;51290;45.060;38.948;2024-01-30T05:58:27;12.75;;;7.68;;
64832;SDS011;51290;45.060;38.948;2024-01-30T06:00:53;10.43;;;6.18;;
64832;SDS011;51290;45.060;38.948;2024-01-30T06:03:19;12.00;;;7.60;;
64832;SDS011;51290;45.060;38.948;2024-01-30T06:05:45;5.97;;;4.40;;
64832;SDS011;51290;45.060;38.948;2024-01-30T06:08:12;9.27;;;6.47;;
64832;SDS011;51290;45.060;38.948;2024-01-30T06:10:37;13.57;;;8.23;;
64832;SDS011;51290;45.060;38.948;2024-01-30T06:13:04;11.20;;;7.47;;
64832;SDS011;51290;45.060;38.948;2024-01-30T06:15:30;9.27;;;5.63;;
64832;SDS011;51290;45.060;38.948;2024-01-30T06:17:58;22.83;;;7.13;;
64832;SDS011;51290;45.060;38.948;2024-01-30T06:20:24;11.10;;;7.03;;
64832;SDS011;51290;45.060;38.948;2024-01-30T06:22:51;11.93;;;7.70;;
64832;SDS011;51290;45.060;38.948;2024-01-30T06:25:17;10.68;;;6.25;;
64832;SDS011;51290;45.060;38.948;2024-01-30T06:27:43;12.23;;;6.85;;
64832;SDS011;51290;45.060;38.948;2024-01-30T06:30:09;16.20;;;11.48;;
64832;SDS011;51290;45.060;38.948;2024-01-30T06:32:36;11.38;;;7.47;;
64832;SDS011;51290;45.060;38.948;2024-01-30T06:35:03;10.00;;;6.70;;
64832;SDS011;51290;45.060;38.948;2024-01-30T06:37:29;9.68;;;4.93;;
64832;SDS011;51290;45.060;38.948;2024-01-30T06:39:55;7.03;;;5.05;;
64832;SDS011;51290;45.060;38.948;2024-01-30T06:42:21;19.52;;;8.23;;
64832;SDS011;51290;45.060;38.948;2024-01-30T06:44:47;12.60;;;7.43;;
64832;SDS011;51290;45.060;38.948;2024-01-30T06:47:13;12.77;;;8.32;;
64832;SDS011;51290;45.060;38.948;2024-01-30T06:49:39;12.98;;;7.35;;
64832;SDS011;51290;45.060;38.948;2024-01-30T06:52:07;10.35;;;6.80;;
64832;SDS011;51290;45.060;38.948;2024-01-30T06:54:33;7.65;;;5.15;;
64832;SDS011;51290;45.060;38.948;2024-01-30T06:56:59;9.57;;;6.38;;
64832;SDS011;51290;45.060;38.948;2024-01-30T06:59:25;11.35;;;6.80;;
64832;SDS011;51290;45.060;38.948;2024-01-30T07:01:51;11.63;;;7.57;;
64832;SDS011;51290;45.060;38.948;2024-01-30T07:04:18;9.30;;;6.07;;
64832;SDS011;51290;45.060;38.948;2024-01-30T07:06:44;11.60;;;6.75;;
64832;SDS011;51290;45.060;38.948;2024-01-30T07:09:10;11.52;;;7.00;;
64832;SDS011;51290;45.060;38.948;2024-01-30T07:11:36;15.68;;;7.93;;
64832;SDS011;51290;45.060;38.948;2024-01-30T07:14:02;13.30;;;6.65;;
64832;SDS011;51290;45.060;38.948;2024-01-30T07:16:30;15.40;;;7.20;;
64832;SDS011;51290;45.060;38.948;2024-01-30T07:18:56;26.35;;;7.47;;
64832;SDS011;51290;45.060;38.948;2024-01-30T07:21:22;8.82;;;5.18;;
64832;SDS011;51290;45.060;38.948;2024-01-30T07:23:53;11.52;;;6.00;;
64832;SDS011;51290;45.060;38.948;2024-01-30T07:26:20;11.88;;;7.05;;
64832;SDS011;51290;45.060;38.948;2024-01-30T07:28:46;10.57;;;6.20;;
64832;SDS011;51290;45.060;38.948;2024-01-30T07:31:12;9.95;;;6.47;;
64832;SDS011;51290;45.060;38.948;2024-01-30T07:33:38;9.23;;;5.43;;
64832;SDS011;51290;45.060;38.948;2024-01-30T07:36:04;6.65;;;4.78;;
64832;SDS011;51290;45.060;38.948;2024-01-30T07:38:33;9.20;;;5.40;;
64832;SDS011;51290;45.060;38.948;2024-01-30T07:41:00;9.07;;;5.30;;
64832;SDS011;51290;45.060;38.948;2024-01-30T07:43:26;13.38;;;5.97;;
64832;SDS011;51290;45.060;38.948;2024-01-30T07:45:52;9.82;;;5.65;;
64832;SDS011;51290;45.060;38.948;2024-01-30T07:48:17;6.25;;;4.57;;
64832;SDS011;51290;45.060;38.948;2024-01-30T07:50:44;7.65;;;4.78;;
64832;SDS011;51290;45.060;38.948;2024-01-30T07:53:10;10.43;;;6.32;;
64832;SDS011;51290;45.060;38.948;2024-01-30T07:55:36;9.02;;;5.43;;
64832;SDS011;51290;45.060;38.948;2024-01-30T07:58:02;14.27;;;5.72;;
64832;SDS011;51290;45.060;38.948;2024-01-30T08:00:29;7.22;;;5.18;;
64832;SDS011;51290;45.060;38.948;2024-01-30T08:02:56;11.60;;;7.07;;
64832;SDS011;51290;45.060;38.948;2024-01-30T08:05:22;11.20;;;5.07;;
64832;SDS011;51290;45.060;38.948;2024-01-30T08:07:48;13.80;;;6.43;;
64832;SDS011;51290;45.060;38.948;2024-01-30T08:10:15;12.60;;;5.57;;
64832;SDS011;51290;45.060;38.948;2024-01-30T08:12:41;15.68;;;6.70;;
64832;SDS011;51290;45.060;38.948;2024-01-30T08:15:07;10.65;;;5.90;;
64832;SDS011;51290;45.060;38.948;2024-01-30T08:17:33;6.82;;;4.40;;
64832;SDS011;51290;45.060;38.948;2024-01-30T08:19:59;6.13;;;4.35;;
64832;SDS011;51290;45.060;38.948;2024-01-30T08:22:26;15.13;;;5.40;;
64832;SDS011;51290;45.060;38.948;2024-01-30T08:24:52;13.95;;;5.57;;
64832;SDS011;51290;45.060;38.948;2024-01-30T08:27:17;7.85;;;5.10;;
64832;SDS011;51290;45.060;38.948;2024-01-30T08:29:44;11.73;;;6.00;;
64832;SDS011;51290;45.060;38.948;2024-01-30T08:32:11;5.75;;;3.95;;
64832;SDS011;51290;45.060;38.948;2024-01-30T08:34:37;9.80;;;5.00;;
64832;SDS011;51290;45.060;38.948;2024-01-30T08:37:03;7.90;;;4.55;;
64832;SDS011;51290;45.060;38.948;2024-01-30T08:39:29;7.97;;;5.00;;
64832;SDS011;51290;45.060;38.948;2024-01-30T08:41:56;4.53;;;3.47;;
64832;SDS011;51290;45.060;38.948;2024-01-30T08:44:22;9.43;;;6.05;;
64832;SDS011;51290;45.060;38.948;2024-01-30T08:46:48;13.15;;;5.43;;
64832;SDS011;51290;45.060;38.948;2024-01-30T08:49:19;8.38;;;4.53;;
64832;SDS011;51290;45.060;38.948;2024-01-30T08:51:46;11.27;;;5.95;;
64832;SDS011;51290;45.060;38.948;2024-01-30T08:54:12;9.65;;;4.88;;
64832;SDS011;51290;45.060;38.948;2024-01-30T08:56:38;9.68;;;4.90;;
64832;SDS011;51290;45.060;38.948;2024-01-30T08:59:04;7.32;;;4.40;;
64832;SDS011;51290;45.060;38.948;2024-01-30T09:01:30;10.25;;;5.15;;
64832;SDS011;51290;45.060;38.948;2024-01-30T09:03:56;11.00;;;5.28;;
64832;SDS011;51290;45.060;38.948;2024-01-30T09:06:22;7.22;;;4.20;;
64832;SDS011;51290;45.060;38.948;2024-01-30T09:08:49;8.20;;;4.35;;
64832;SDS011;51290;45.060;38.948;2024-01-30T09:11:15;8.05;;;5.15;;
64832;SDS011;51290;45.060;38.948;2024-01-30T09:13:41;10.70;;;5.30;;
64832;SDS011;51290;45.060;38.948;2024-01-30T09:16:08;6.72;;;4.53;;
64832;SDS011;51290;45.060;38.948;2024-01-30T09:18:34;7.68;;;4.93;;
64832;SDS011;51290;45.060;38.948;2024-01-30T09:21:01;7.38;;;5.03;;
64832;SDS011;51290;45.060;38.948;2024-01-30T09:23:27;9.73;;;4.82;;
64832;SDS011;51290;45.060;38.948;2024-01-30T09:25:53;8.57;;;4.72;;
64832;SDS011;51290;45.060;38.948;2024-01-30T09:28:20;8.35;;;4.55;;
64832;SDS011;51290;45.060;38.948;2024-01-30T09:30:46;12.40;;;5.15;;
64832;SDS011;51290;45.060;38.948;2024-01-30T09:33:18;6.05;;;4.13;;
64832;SDS011;51290;45.060;38.948;2024-01-30T09:35:45;6.25;;;4.35;;
64832;SDS011;51290;45.060;38.948;2024-01-30T09:38:11;8.13;;;5.43;;
64832;SDS011;51290;45.060;38.948;2024-01-30T09:40:37;9.52;;;5.35;;
64832;SDS011;51290;45.060;38.948;2024-01-30T09:43:03;11.40;;;4.95;;
64832;SDS011;51290;45.060;38.948;2024-01-30T09:45:29;3.33;;;2.80;;
64832;SDS011;51290;45.060;38.948;2024-01-30T09:47:58;7.72;;;5.03;;
64832;SDS011;51290;45.060;38.948;2024-01-30T09:50:26;9.55;;;4.53;;
64832;SDS011;51290;45.060;38.948;2024-01-30T09:52:55;5.68;;;3.80;;
64832;SDS011;51290;45.060;38.948;2024-01-30T09:55:23;7.93;;;3.97;;
64832;SDS011;51290;45.060;38.948;2024-01-30T09:57:49;6.82;;;4.68;;
64832;SDS011;51290;45.060;38.948;2024-01-30T10:00:15;9.20;;;4.93;;
64832;SDS011;51290;45.060;38.948;2024-01-30T10:02:42;7.65;;;4.90;;
64832;SDS011;51290;45.060;38.948;2024-01-30T10:05:08;6.72;;;3.80;;
64832;SDS011;51290;45.060;38.948;2024-01-30T10:07:34;7.90;;;3.35;;
64832;SDS011;51290;45.060;38.948;2024-01-30T10:10:00;4.53;;;3.13;;
64832;SDS011;51290;45.060;38.948;2024-01-30T10:12:26;5.43;;;3.75;;
64832;SDS011;51290;45.060;38.948;2024-01-30T10:14:55;7.38;;;4.20;;
64832;SDS011;51290;45.060;38.948;2024-01-30T10:17:24;5.85;;;4.13;;
64832;SDS011;51290;45.060;38.948;2024-01-30T10:19:50;13.45;;;6.18;;
64832;SDS011;51290;45.060;38.948;2024-01-30T10:22:17;8.23;;;5.28;;
64832;SDS011;51290;45.060;38.948;2024-01-30T10:24:43;9.07;;;5.57;;
64832;SDS011;51290;45.060;38.948;2024-01-30T10:27:11;8.00;;;3.85;;
64832;SDS011;51290;45.060;38.948;2024-01-30T10:29:38;8.73;;;5.45;;
64832;SDS011;51290;45.060;38.948;2024-01-30T10:32:04;11.65;;;5.63;;
64832;SDS011;51290;45.060;38.948;2024-01-30T10:34:31;12.15;;;5.45;;
64832;SDS011;51290;45.060;38.948;2024-01-30T10:37:07;10.88;;;3.60;;
64832;SDS011;51290;45.060;38.948;2024-01-30T10:39:44;8.13;;;4.65;;
64832;SDS011;51290;45.060;38.948;2024-01-30T10:42:11;9.77;;;5.07;;
64832;SDS011;51290;45.060;38.948;2024-01-30T10:47:36;11.75;;;5.95;;
64832;SDS011;51290;45.060;38.948;2024-01-30T10:50:03;7.43;;;4.30;;
64832;SDS011;51290;45.060;38.948;2024-01-30T10:52:29;9.60;;;5.20;;
64832;SDS011;51290;45.060;38.948;2024-01-30T10:54:56;8.38;;;4.97;;
64832;SDS011;51290;45.060;38.948;2024-01-30T10:57:25;7.22;;;4.78;;
64832;SDS011;51290;45.060;38.948;2024-01-30T10:59:57;7.15;;;4.47;;
64832;SDS011;51290;45.060;38.948;2024-01-30T11:02:25;11.13;;;4.70;;
64832;SDS011;51290;45.060;38.948;2024-01-30T11:04:56;9.02;;;4.05;;
64832;SDS011;51290;45.060;38.948;2024-01-30T11:07:24;6.63;;;4.07;;
64832;SDS011;51290;45.060;38.948;2024-01-30T11:09:53;6.50;;;4.10;;
64832;SDS011;51290;45.060;38.948;2024-01-30T11:12:30;9.15;;;4.18;;
64832;SDS011;51290;45.060;38.948;2024-01-30T11:15:03;6.95;;;4.18;;
64832;SDS011;51290;45.060;38.948;2024-01-30T11:22:52;4.60;;;3.15;;
64832;SDS011;51290;45.060;38.948;2024-01-30T11:25:21;6.60;;;4.07;;
64832;SDS011;51290;45.060;38.948;2024-01-30T11:27:50;6.85;;;4.35;;
64832;SDS011;51290;45.060;38.948;2024-01-30T11:30:26;7.13;;;4.65;;
64832;SDS011;51290;45.060;38.948;2024-01-30T11:33:04;7.68;;;4.00;;
64832;SDS011;51290;45.060;38.948;2024-01-30T11:35:35;7.57;;;4.18;;
64832;SDS011;51290;45.060;38.948;2024-01-30T11:38:02;6.95;;;4.35;;
64832;SDS011;51290;45.060;38.948;2024-01-30T11:40:30;6.90;;;3.78;;
64832;SDS011;51290;45.060;38.948;2024-01-30T11:42:57;7.53;;;4.22;;
64832;SDS011;51290;45.060;38.948;2024-01-30T11:45:26;6.50;;;3.80;;
64832;SDS011;51290;45.060;38.948;2024-01-30T11:47:53;9.82;;;4.38;;
64832;SDS011;51290;45.060;38.948;2024-01-30T11:50:19;7.88;;;4.70;;
64832;SDS011;51290;45.060;38.948;2024-01-30T11:52:46;6.80;;;4.22;;
64832;SDS011;51290;45.060;38.948;2024-01-30T11:55:13;9.85;;;4.80;;
64832;SDS011;51290;45.060;38.948;2024-01-30T11:57:40;5.82;;;3.88;;
64832;SDS011;51290;45.060;38.948;2024-01-30T12:00:13;4.90;;;3.58;;
64832;SDS011;51290;45.060;38.948;2024-01-30T12:02:40;3.13;;;2.05;;
64832;SDS011;51290;45.060;38.948;2024-01-30T12:05:07;9.10;;;3.63;;
64832;SDS011;51290;45.060;38.948;2024-01-30T12:07:34;9.18;;;5.03;;
64832;SDS011;51290;45.060;38.948;2024-01-30T12:10:00;10.30;;;3.72;;
64832;SDS011;51290;45.060;38.948;2024-01-30T12:12:26;8.43;;;4.72;;
64832;SDS011;51290;45.060;38.948;2024-01-30T12:14:53;9.80;;;4.40;;
64832;SDS011;51290;45.060;38.948;2024-01-30T12:17:29;5.82;;;3.65;;
64832;SDS011;51290;45.060;38.948;2024-01-30T12:22:29;6.88;;;4.30;;
64832;SDS011;51290;45.060;38.948;2024-01-30T12:24:56;8.38;;;3.50;;
64832;SDS011;51290;45.060;38.948;2024-01-30T12:27:23;7.15;;;3.63;;
64832;SDS011;51290;45.060;38.948;2024-01-30T12:29:55;8.88;;;4.13;;
64832;SDS011;51290;45.060;38.948;2024-01-30T12:32:24;5.15;;;2.95;;
64832;SDS011;51290;45.060;38.948;2024-01-30T12:34:50;8.95;;;3.72;;
64832;SDS011;51290;45.060;38.948;2024-01-30T12:37:16;6.63;;;3.33;;
64832;SDS011;51290;45.060;38.948;2024-01-30T12:39:48;17.05;;;8.50;;
64832;SDS011;51290;45.060;38.948;2024-01-30T12:42:14;6.90;;;3.78;;
64832;SDS011;51290;45.060;38.948;2024-01-30T12:44:40;5.18;;;3.28;;
64832;SDS011;51290;45.060;38.948;2024-01-30T12:47:08;5.30;;;3.28;;
64832;SDS011;51290;45.060;38.948;2024-01-30T12:49:35;5.70;;;3.75;;
64832;SDS011;51290;45.060;38.948;2024-01-30T12:52:01;7.78;;;3.97;;
64832;SDS011;51290;45.060;38.948;2024-01-30T12:54:28;8.95;;;4.22;;
64832;SDS011;51290;45.060;38.948;2024-01-30T12:56:54;13.27;;;3.80;;
64832;SDS011;51290;45.060;38.948;2024-01-30T12:59:21;9.18;;;5.43;;
64832;SDS011;51290;45.060;38.948;2024-01-30T13:01:47;12.02;;;5.95;;
64832;SDS011;51290;45.060;38.948;2024-01-30T13:04:13;10.52;;;4.50;;
64832;SDS011;51290;45.060;38.948;2024-01-30T13:06:40;11.98;;;7.80;;
64832;SDS011;51290;45.060;38.948;2024-01-30T13:09:06;7.05;;;4.15;;
64832;SDS011;51290;45.060;38.948;2024-01-30T13:11:32;10.68;;;4.20;;
64832;SDS011;51290;45.060;38.948;2024-01-30T13:13:59;6.72;;;4.13;;
64832;SDS011;51290;45.060;38.948;2024-01-30T13:16:25;9.93;;;3.97;;
64832;SDS011;51290;45.060;38.948;2024-01-30T13:18:51;10.02;;;4.05;;
64832;SDS011;51290;45.060;38.948;2024-01-30T13:21:18;9.80;;;4.80;;
64832;SDS011;51290;45.060;38.948;2024-01-30T13:23:44;11.07;;;5.28;;
64832;SDS011;51290;45.060;38.948;2024-01-30T13:26:10;9.70;;;4.15;;
64832;SDS011;51290;45.060;38.948;2024-01-30T13:28:36;6.75;;;3.42;;
64832;SDS011;51290;45.060;38.948;2024-01-30T13:31:02;5.95;;;3.58;;
64832;SDS011;51290;45.060;38.948;2024-01-30T13:33:30;7.60;;;3.97;;
64832;SDS011;51290;45.060;38.948;2024-01-30T13:35:56;6.93;;;3.42;;
64832;SDS011;51290;45.060;38.948;2024-01-30T13:38:22;4.15;;;2.90;;
64832;SDS011;51290;45.060;38.948;2024-01-30T13:40:48;6.03;;;3.30;;
64832;SDS011;51290;45.060;38.948;2024-01-30T13:43:14;4.88;;;3.40;;
64832;SDS011;51290;45.060;38.948;2024-01-30T13:45:41;9.73;;;3.05;;
64832;SDS011;51290;45.060;38.948;2024-01-30T13:48:07;8.30;;;3.90;;
64832;SDS011;51290;45.060;38.948;2024-01-30T13:50:33;4.75;;;3.30;;
64832;SDS011;51290;45.060;38.948;2024-01-30T13:52:59;6.47;;;3.90;;
64832;SDS011;51290;45.060;38.948;2024-01-30T13:55:26;5.47;;;2.85;;
64832;SDS011;51290;45.060;38.948;2024-01-30T13:57:51;3.65;;;2.78;;
64832;SDS011;51290;45.060;38.948;2024-01-30T14:00:17;5.75;;;3.30;;
64832;SDS011;51290;45.060;38.948;2024-01-30T14:02:44;6.05;;;2.83;;
64832;SDS011;51290;45.060;38.948;2024-01-30T14:05:10;8.40;;;3.38;;
64832;SDS011;51290;45.060;38.948;2024-01-30T14:07:36;5.82;;;3.28;;
64832;SDS011;51290;45.060;38.948;2024-01-30T14:10:04;7.65;;;3.42;;
64832;SDS011;51290;45.060;38.948;2024-01-30T14:12:31;7.40;;;3.70;;
64832;SDS011;51290;45.060;38.948;2024-01-30T14:14:57;7.35;;;3.53;;
64832;SDS011;51290;45.060;38.948;2024-01-30T14:17:23;7.10;;;3.42;;
64832;SDS011;51290;45.060;38.948;2024-01-30T14:19:49;4.72;;;2.75;;
64832;SDS011;51290;45.060;38.948;2024-01-30T14:22:15;7.68;;;3.40;;
64832;SDS011;51290;45.060;38.948;2024-01-30T14:24:41;8.32;;;3.65;;
64832;SDS011;51290;45.060;38.948;2024-01-30T14:27:07;6.55;;;3.15;;
64832;SDS011;51290;45.060;38.948;2024-01-30T14:29:33;4.40;;;3.20;;
64832;SDS011;51290;45.060;38.948;2024-01-30T14:31:59;5.90;;;3.50;;
64832;SDS011;51290;45.060;38.948;2024-01-30T14:34:25;18.88;;;3.85;;
64832;SDS011;51290;45.060;38.948;2024-01-30T14:36:52;6.03;;;3.60;;
64832;SDS011;51290;45.060;38.948;2024-01-30T14:39:18;11.90;;;6.00;;